Time;durP1;ratioP1;P1;durP2;ratioP2;P2;SDS_P1;SDS_P2;PMS_P1;PMS_P2;Temp;Humidity;BMP_temperature;BMP_pressure;BME280_temperature;BME280_humidity;BME280_pressure;Samples;Min_cycle;Max_cycle;Signal;HPM_P1;HPM_P2
2022/10/09 00:21:54;;;;;;;7.85;2.42;;;9.10;99.90;;;;;;4915587;23;20040;-83
2022/10/09 00:24:19;;;;;;;8.45;2.45;;;9.20;99.90;;;;;;4920612;29;20055;-83
2022/10/09 00:26:47;;;;;;;7.15;2.40;;;9.20;99.90;;;;;;4920895;29;20090;-83
2022/10/09 01:38:16;;;;;;;8.32;2.20;;;8.80;99.90;;;;;;4934441;26;20443;-83
2022/10/09 01:40:45;;;;;;;6.95;2.00;;;8.80;99.90;;;;;;4919430;29;20055;-83
2022/10/09 01:43:10;;;;;;;8.27;2.47;;;8.80;99.90;;;;;;4936983;29;20047;-84
2022/10/09 01:45:38;;;;;;;7.78;2.40;;;8.80;99.90;;;;;;4935728;29;20119;-83
2022/10/09 01:48:08;;;;;;;8.95;2.33;;;8.80;99.90;;;;;;4920708;29;20052;-82
2022/10/09 01:50:43;;;;;;;6.45;2.15;;;8.80;99.90;;;;;;4920228;29;20051;-83
2022/10/09 01:53:17;;;;;;;8.73;2.75;;;8.80;99.90;;;;;;4936961;29;20479;-83
2022/10/09 02:34:26;;;;;;;7.75;2.17;;;8.70;99.90;;;;;;5193928;23;20063;-83
2022/10/09 02:36:51;;;;;;;8.48;2.50;;;8.60;99.90;;;;;;4919332;29;20387;-83
2022/10/09 02:39:23;;;;;;;5.68;2.10;;;8.70;99.90;;;;;;4919184;29;20103;-84
2022/10/09 02:41:48;;;;;;;7.38;1.95;;;8.70;99.90;;;;;;4918782;29;20431;-83
2022/10/09 02:44:14;;;;;;;7.30;2.13;;;8.60;99.90;;;;;;4918727;29;20471;-83
2022/10/09 03:53:30;;;;;;;8.63;2.83;;;8.30;99.90;;;;;;4956381;26;20410;-83
2022/10/09 03:56:19;;;;;;;8.85;2.70;;;8.30;99.90;;;;;;4942013;29;20054;-84
2022/10/09 03:58:45;;;;;;;6.63;2.72;;;8.30;99.90;;;;;;4948038;28;20554;-84
2022/10/09 04:01:10;;;;;;;8.30;2.92;;;8.30;99.90;;;;;;4941636;29;20043;-84
2022/10/09 04:03:36;;;;;;;9.20;3.00;;;8.30;99.90;;;;;;4958347;29;20043;-84
2022/10/09 04:06:02;;;;;;;12.40;4.20;;;8.30;99.90;;;;;;4958732;28;20406;-84
2022/10/09 04:08:28;;;;;;;7.78;3.25;;;8.30;99.90;;;;;;4941199;28;20475;-84
2022/10/09 04:10:57;;;;;;;8.73;3.55;;;8.30;99.90;;;;;;4959973;29;20050;-84
2022/10/09 04:13:23;;;;;;;10.20;3.85;;;8.30;99.90;;;;;;4941276;29;20382;-84
2022/10/09 04:23:35;;;;;;;10.35;4.60;;;8.30;99.90;;;;;;5029333;23;20062;-84
2022/10/09 04:26:00;;;;;;;10.80;3.58;;;8.40;99.90;;;;;;4938982;29;20051;-84
2022/10/09 04:28:30;;;;;;;9.57;3.80;;;8.40;99.90;;;;;;4922210;29;20130;-84
2022/10/09 04:30:57;;;;;;;9.93;3.53;;;8.40;99.90;;;;;;4938868;29;20047;-84
2022/10/09 04:33:28;;;;;;;11.93;4.00;;;8.40;99.90;;;;;;4939049;29;20059;-84
2022/10/09 04:35:55;;;;;;;7.72;3.80;;;8.40;99.90;;;;;;4921449;29;20051;-83
2022/10/09 04:38:21;;;;;;;7.85;3.90;;;8.40;99.90;;;;;;4939110;29;20051;-84
2022/10/09 04:40:56;;;;;;;13.68;4.50;;;8.40;99.90;;;;;;4921715;29;20043;-84
2022/10/09 05:31:42;;;;;;;15.73;7.22;;;8.10;99.90;;;;;;5297642;23;20044;-86
2022/10/09 05:34:08;;;;;;;13.75;6.97;;;8.10;99.90;;;;;;4919755;29;20091;-85
2022/10/09 05:36:34;;;;;;;11.65;7.18;;;8.10;99.90;;;;;;4937163;29;20059;-84
2022/10/09 05:39:00;;;;;;;14.10;7.40;;;8.10;99.90;;;;;;4919581;29;20048;-84
2022/10/09 05:41:27;;;;;;;15.55;7.57;;;8.10;99.90;;;;;;4919112;29;20102;-84
2022/10/09 05:43:59;;;;;;;12.55;7.38;;;8.10;99.90;;;;;;4918598;29;20043;-84
2022/10/09 05:56:46;;;;;;;12.55;7.15;;;7.90;99.90;;;;;;5895460;23;20066;-83
2022/10/09 05:59:20;;;;;;;12.77;6.93;;;7.90;99.90;;;;;;4919282;29;20051;-83
2022/10/09 06:01:48;;;;;;;12.00;7.30;;;7.80;99.90;;;;;;4919223;29;20044;-85
2022/10/09 06:04:20;;;;;;;11.93;6.78;;;7.80;99.90;;;;;;4936175;29;20087;-83
2022/10/09 06:06:47;;;;;;;10.48;7.32;;;7.80;99.90;;;;;;4919311;29;20083;-83
2022/10/09 06:09:20;;;;;;;12.00;7.03;;;7.80;99.90;;;;;;4919008;29;20099;-83
2022/10/09 06:11:46;;;;;;;15.75;6.68;;;7.80;99.90;;;;;;4918992;29;20060;-83
2022/10/09 06:58:13;;;;;;;13.63;7.85;;;8.30;99.90;;;;;;5488179;23;20106;-84
2022/10/09 07:00:42;;;;;;;17.88;7.50;;;8.30;99.90;;;;;;4921980;29;20435;-84
2022/10/09 07:03:07;;;;;;;13.60;7.22;;;8.30;99.90;;;;;;4921924;29;20131;-84
2022/10/09 08:52:58;;;;;;;10.18;4.03;;;11.60;99.90;;;;;;2000534;23;20329;-81
2022/10/09 08:55:25;;;;;;;;;;;11.70;99.90;;;;;;4896460;29;20048;-82
2022/10/09 08:57:56;;;;;;;12.13;4.20;;;11.90;99.90;;;;;;4897842;29;19923;-82
2022/10/09 09:00:26;;;;;;;8.18;4.03;;;12.10;99.90;;;;;;4897878;29;20052;-81
2022/10/09 09:36:39;;;;;;;7.82;2.53;;;13.40;99.90;;;;;;2295826;27;20428;-82
2022/10/09 09:39:05;;;;;;;7.22;2.50;;;13.40;99.90;;;;;;4900357;29;20199;-82
2022/10/09 09:41:30;;;;;;;5.35;2.10;;;13.50;99.90;;;;;;4900015;29;20474;-81
2022/10/09 09:43:56;;;;;;;7.43;2.15;;;13.60;99.90;;;;;;4900347;29;20055;-82
2022/10/09 09:46:28;;;;;;;6.00;1.92;;;13.60;99.90;;;;;;4900459;29;20051;-81
2022/10/09 09:48:54;;;;;;;7.90;2.20;;;13.80;99.90;;;;;;4900181;29;20048;-82
2022/10/09 09:51:24;;;;;;;6.07;1.75;;;13.80;99.90;;;;;;4916845;29;20460;-82
2022/10/09 09:54:14;;;;;;;6.30;2.13;;;13.90;99.90;;;;;;4900235;29;20052;-82
2022/10/09 09:56:44;;;;;;;7.07;2.08;;;14.00;99.90;;;;;;4900000;29;20091;-85
2022/10/09 09:59:36;;;;;;;5.05;1.95;;;13.90;99.90;;;;;;4900277;29;20062;-83
2022/10/09 10:02:05;;;;;;;7.88;2.45;;;14.10;99.90;;;;;;4899782;29;20500;-81
2022/10/09 10:04:31;;;;;;;6.00;2.20;;;14.10;99.90;;;;;;4899866;29;20419;-83
2022/10/09 10:06:57;;;;;;;5.72;2.50;;;14.20;99.90;;;;;;4901498;29;20514;-83
2022/10/09 10:09:23;;;;;;;6.72;2.33;;;14.20;99.90;;;;;;4923450;29;20044;-83
2022/10/09 10:12:02;;;;;;;7.05;1.80;;;14.30;99.90;;;;;;4923436;29;20055;-83
2022/10/09 10:14:29;;;;;;;3.53;1.20;;;14.40;99.90;;;;;;4906594;29;20098;-83
2022/10/09 10:16:57;;;;;;;8.20;1.38;;;14.50;99.90;;;;;;4906226;29;20455;-83
2022/10/09 10:19:49;;;;;;;6.50;1.60;;;14.50;99.90;;;;;;4906287;29;20075;-82
2022/10/09 10:38:12;;;;;;;4.95;1.10;;;14.80;99.90;;;;;;6083100;23;20361;-83
2022/10/09 10:41:12;;;;;;;4.65;1.20;;;14.90;99.90;;;;;;4885815;29;20200;-83
2022/10/09 10:43:57;;;;;;;6.68;1.58;;;14.90;99.90;;;;;;4887337;29;20100;-83
2022/10/09 10:46:30;;;;;;;4.13;1.27;;;15.00;99.90;;;;;;4887510;29;20056;-83
2022/10/09 10:48:58;;;;;;;4.97;1.20;;;15.10;99.90;;;;;;4904174;29;20057;-84
2022/10/09 10:51:34;;;;;;;5.45;1.20;;;15.30;99.90;;;;;;4887226;29;20054;-83
2022/10/09 10:54:15;;;;;;;4.50;1.10;;;15.20;99.90;;;;;;4887814;29;20049;-85
2022/10/09 10:56:54;;;;;;;4.88;1.50;;;15.30;99.90;;;;;;4904175;29;20048;-83
2022/10/09 11:00:05;;;;;;;7.03;1.10;;;15.40;99.90;;;;;;4886788;29;20057;-82
2022/10/09 11:02:48;;;;;;;7.30;1.35;;;15.30;99.90;;;;;;4887240;29;20452;-83
2022/10/09 11:05:17;;;;;;;;;;;15.40;99.90;;;;;;4887349;29;20527;-82
2022/10/09 11:08:08;;;;;;;5.38;1.23;;;15.40;99.90;;;;;;4887309;29;19985;-84
2022/10/09 11:10:57;;;;;;;5.95;1.50;;;15.40;99.90;;;;;;4874056;29;20553;-83
2022/10/09 11:13:55;;;;;;;4.97;1.02;;;15.40;99.90;;;;;;4885089;29;20052;-83
2022/10/09 11:16:51;;;;;;;7.63;1.30;;;15.40;99.90;;;;;;4865704;29;20413;-86
2022/10/09 11:19:31;;;;;;;3.28;1.10;;;15.50;99.90;;;;;;4857475;29;20065;-83
2022/10/09 12:14:36;;;;;;;4.68;1.30;;;16.00;99.90;;;;;;5169527;23;20047;-84
2022/10/09 12:17:30;;;;;;;5.60;1.08;;;16.00;99.90;;;;;;4939863;29;20146;-82
2022/10/09 12:20:21;;;;;;;6.45;1.02;;;16.10;99.90;;;;;;4940059;29;20066;-81
2022/10/09 12:22:51;;;;;;;4.15;1.02;;;15.90;99.90;;;;;;4939078;29;20058;-82
2022/10/09 12:25:39;;;;;;;3.22;0.77;;;15.80;99.90;;;;;;4939655;29;20051;-82
2022/10/09 12:28:22;;;;;;;5.90;0.90;;;15.80;99.90;;;;;;4956723;29;20130;-83
2022/10/09 12:46:29;;;;;;;7.32;1.45;;;15.80;99.90;;;;;;5644567;23;20056;-82
2022/10/09 13:32:56;;;;;;;6.35;1.17;;;16.10;99.90;;;;;;5781270;23;20075;-81
2022/10/09 13:35:22;;;;;;;7.07;1.20;;;16.00;99.90;;;;;;4919447;29;20047;-82
2022/10/09 13:37:59;;;;;;;5.45;1.17;;;16.00;99.90;;;;;;4919400;29;20051;-82
2022/10/09 13:40:28;;;;;;;6.65;1.40;;;16.10;99.90;;;;;;4919458;29;20066;-81
2022/10/09 13:43:01;;;;;;;3.30;1.10;;;16.10;99.90;;;;;;4918478;29;20062;-82
2022/10/09 13:45:27;;;;;;;6.72;1.30;;;16.10;99.90;;;;;;4919343;29;20480;-81
2022/10/09 13:47:53;;;;;;;5.80;1.50;;;16.10;99.90;;;;;;4919170;29;20491;-81
2022/10/09 13:50:19;;;;;;;6.72;1.20;;;16.10;99.90;;;;;;4919366;29;20046;-82
2022/10/09 13:52:45;;;;;;;4.72;1.50;;;16.10;99.90;;;;;;4919168;29;20202;-82
2022/10/09 13:55:10;;;;;;;4.35;1.33;;;16.10;99.90;;;;;;4936211;29;20047;-83
2022/10/09 14:23:34;;;;;;;6.03;1.60;;;15.90;99.90;;;;;;5297650;23;20048;-94
2022/10/09 14:26:20;;;;;;;5.22;1.83;;;15.90;99.90;;;;;;4920134;29;20056;-80
2022/10/09 14:32:26;;;;;;;10.02;2.20;;;16.00;99.90;;;;;;4935821;29;20055;-80
2022/10/09 14:34:54;;;;;;;7.97;1.80;;;16.10;99.90;;;;;;4918759;29;20047;-79
2022/10/09 14:54:00;;;;;;;8.25;2.53;;;15.30;99.90;;;;;;4924138;26;20052;-80
2022/10/09 14:56:27;;;;;;;7.72;2.45;;;15.40;99.90;;;;;;4922509;29;20063;-79
2022/10/09 14:58:53;;;;;;;7.53;2.85;;;15.40;99.90;;;;;;4922289;29;20054;-80
2022/10/09 15:01:23;;;;;;;8.05;2.65;;;15.30;99.90;;;;;;4922185;29;20052;-80
2022/10/09 17:29:51;;;;;;;11.50;7.03;;;11.90;99.90;;;;;;5885198;23;20047;-78
2022/10/09 17:32:24;;;;;;;12.45;5.93;;;11.90;99.90;;;;;;4919672;29;20051;-79
2022/10/09 17:35:05;;;;;;;14.63;9.25;;;11.80;99.90;;;;;;4865874;23;20047;-79
2022/10/09 18:48:39;;;;;;;11.43;5.97;;;10.80;99.90;;;;;;5133311;23;20052;-81
2022/10/09 18:51:08;;;;;;;10.77;6.75;;;10.80;99.90;;;;;;4903753;29;20069;-81
2022/10/09 18:53:36;;;;;;;7.85;5.97;;;10.80;99.90;;;;;;4903711;29;20076;-80
2022/10/09 18:56:03;;;;;;;8.98;5.53;;;10.80;99.90;;;;;;4920421;29;20044;-81
2022/10/09 18:58:48;;;;;;;12.52;6.00;;;10.80;99.90;;;;;;4903593;29;20083;-80
2022/10/09 19:01:16;;;;;;;13.95;7.75;;;10.80;99.90;;;;;;4903311;29;20052;-81
2022/10/09 20:08:28;;;;;;;10.60;4.95;;;10.10;99.90;;;;;;5718585;23;20047;-81
2022/10/09 20:10:58;;;;;;;8.75;5.03;;;10.10;99.90;;;;;;4939283;29;20384;-80
2022/10/09 20:13:24;;;;;;;8.43;4.95;;;10.10;99.90;;;;;;4921408;29;20387;-81
2022/10/09 21:27:27;;;;;;;9.48;5.93;;;9.50;99.90;;;;;;5437909;23;20048;-82
2022/10/09 21:29:55;;;;;;;9.57;5.20;;;9.50;99.90;;;;;;4901280;29;20044;-82
2022/10/09 21:32:21;;;;;;;7.68;5.47;;;9.50;99.90;;;;;;4901252;29;20051;-82
2022/10/09 21:34:47;;;;;;;9.45;5.80;;;9.50;99.90;;;;;;4902323;29;20103;-82
2022/10/09 21:37:13;;;;;;;9.35;5.07;;;9.50;99.90;;;;;;4901401;29;20127;-81
2022/10/09 21:39:38;;;;;;;7.60;4.95;;;9.50;99.90;;;;;;4918969;29;20056;-81
2022/10/09 21:42:13;;;;;;;8.02;5.30;;;9.50;99.90;;;;;;4901177;29;20055;-82
2022/10/09 21:44:39;;;;;;;8.30;5.75;;;9.50;99.90;;;;;;4917804;29;20044;-82
2022/10/09 21:47:04;;;;;;;8.85;5.18;;;9.50;99.90;;;;;;4900746;29;20511;-82
2022/10/09 21:49:30;;;;;;;11.10;5.35;;;9.50;99.90;;;;;;4901263;29;20048;-81
2022/10/09 21:51:56;;;;;;;9.90;5.65;;;9.40;99.90;;;;;;4918415;29;20066;-82
2022/10/09 21:54:22;;;;;;;7.95;4.78;;;9.40;99.90;;;;;;4901513;29;20396;-82
2022/10/09 21:56:48;;;;;;;8.90;5.30;;;9.50;99.90;;;;;;4901414;29;20040;-82
2022/10/09 21:59:13;;;;;;;6.60;4.70;;;9.40;99.90;;;;;;4900919;29;20081;-82
2022/10/09 22:01:39;;;;;;;10.27;5.35;;;9.40;99.90;;;;;;4900197;29;20048;-82
2022/10/09 22:04:05;;;;;;;8.10;4.60;;;9.40;99.90;;;;;;4900863;29;20099;-82
2022/10/09 22:06:30;;;;;;;6.53;4.70;;;9.40;99.90;;;;;;4901310;29;20064;-82
2022/10/09 22:08:57;;;;;;;10.23;5.22;;;9.40;99.90;;;;;;4900569;29;20066;-82
2022/10/09 22:48:18;;;;;;;7.70;4.60;;;9.40;99.90;;;;;;5961974;23;20018;-81
2022/10/09 22:50:44;;;;;;;6.80;4.13;;;9.40;99.90;;;;;;4919811;29;20068;-82
2022/10/09 22:53:09;;;;;;;7.15;4.82;;;9.30;99.90;;;;;;4919179;29;20135;-82
